Time;durP1;ratioP1;P1;durP2;ratioP2;P2;SDS_P1;SDS_P2;PMS_P1;PMS_P2;Temp;Humidity;BMP_temperature;BMP_pressure;BME280_temperature;BME280_humidity;BME280_pressure;Samples;Min_cycle;Max_cycle;Signal;HPM_P1;HPM_P2
2022/06/17 00:02:06;;;;;;;;;;;17.90;99.90;;;;;;5075165;28;19916;-68
2022/06/17 00:04:31;;;;;;;;;;;17.90;99.90;;;;;;5093245;28;19919;-68
2022/06/17 00:06:59;;;;;;;;;;;17.90;99.90;;;;;;5093238;28;20033;-68
2022/06/17 00:09:26;;;;;;;;;;;17.90;99.90;;;;;;5093487;28;19966;-68
2022/06/17 00:11:51;;;;;;;;;;;17.90;99.90;;;;;;5093263;28;19916;-68
2022/06/17 00:14:18;;;;;;;;;;;17.90;99.90;;;;;;5093172;28;20414;-68
2022/06/17 00:16:44;;;;;;;;;;;17.90;99.90;;;;;;5092954;28;19912;-68
2022/06/17 00:19:10;;;;;;;;;;;17.90;99.90;;;;;;5092798;28;19926;-68
2022/06/17 00:21:37;;;;;;;;;;;17.90;99.90;;;;;;5092927;28;19912;-69
2022/06/17 00:24:11;;;;;;;;;;;17.80;99.90;;;;;;5092338;28;19962;-69
2022/06/17 00:26:36;;;;;;;;;;;17.90;99.90;;;;;;5092794;28;19966;-69
2022/06/17 00:29:02;;;;;;;;;;;17.90;99.90;;;;;;5092348;28;19952;-68
2022/06/17 00:31:27;;;;;;;;;;;17.90;99.90;;;;;;5074534;28;19927;-68
2022/06/17 00:33:53;;;;;;;;;;;17.90;99.90;;;;;;5092509;28;19912;-69
2022/06/17 00:36:18;;;;;;;;;;;17.90;99.90;;;;;;5092682;28;19916;-68
2022/06/17 00:38:45;;;;;;;;;;;17.90;99.90;;;;;;5092544;28;19912;-68
2022/06/17 00:41:13;;;;;;;;;;;17.90;99.90;;;;;;5092702;28;20310;-69
2022/06/17 00:43:40;;;;;;;;;;;18.00;99.90;;;;;;5092522;28;19912;-68
2022/06/17 00:46:11;;;;;;;;;;;18.00;99.90;;;;;;5074182;28;20442;-68
2022/06/17 00:48:39;;;;;;;;;;;18.00;99.90;;;;;;5092340;28;19918;-68
2022/06/17 00:51:16;;;;;;;;;;;18.00;99.90;;;;;;5092309;28;19916;-69
2022/06/17 00:53:44;;;;;;;;;;;17.90;99.90;;;;;;5092534;28;20343;-68
2022/06/17 00:56:19;;;;;;;;;;;17.90;99.90;;;;;;5092251;28;19951;-68
2022/06/17 00:59:00;;;;;;;;;;;17.90;99.90;;;;;;5092255;28;19909;-69
2022/06/17 01:01:27;;;;;;;;;;;17.90;99.90;;;;;;5091982;28;19912;-68
2022/06/17 01:03:53;;;;;;;;;;;17.90;99.90;;;;;;5092340;28;20462;-69
2022/06/17 01:06:20;;;;;;;;;;;17.90;99.90;;;;;;5092061;28;20313;-68
2022/06/17 01:11:39;;;;;;;;;;;17.90;99.90;;;;;;5092025;28;19958;-68
2022/06/17 01:14:06;;;;;;;;;;;17.90;99.90;;;;;;5073626;28;19923;-68
2022/06/17 01:16:35;;;;;;;;;;;17.90;99.90;;;;;;5091851;28;20081;-68
2022/06/17 01:19:05;;;;;;;;;;;17.90;99.90;;;;;;5091973;28;19919;-69
2022/06/17 01:21:35;;;;;;;;;;;17.90;99.90;;;;;;5091773;28;20446;-68
2022/06/17 01:24:01;;;;;;;;;;;17.90;99.90;;;;;;5091773;28;19919;-68
2022/06/17 01:26:27;;;;;;;;;;;17.90;99.80;;;;;;5091883;28;19912;-68
2022/06/17 01:28:53;;;;;;;;;;;17.90;99.90;;;;;;5073358;28;19927;-68
2022/06/17 01:31:18;;;;;;;;;;;17.80;99.90;;;;;;5091932;28;19916;-69
2022/06/17 01:33:44;;;;;;;;;;;17.80;99.80;;;;;;5091433;28;19917;-68
2022/06/17 01:36:18;;;;;;;;;;;17.80;99.90;;;;;;5090996;28;20434;-68
2022/06/17 01:38:46;;;;;;;;;;;17.80;99.90;;;;;;5091703;28;19955;-69
2022/06/17 01:41:11;;;;;;;;;;;17.70;99.90;;;;;;5091721;28;19912;-69
2022/06/17 01:44:09;;;;;;;;;;;17.70;99.90;;;;;;5091457;28;20367;-69
2022/06/17 01:46:39;;;;;;;;;;;17.60;99.90;;;;;;5057041;28;19916;-69
2022/06/17 01:49:06;;;;;;;;;;;17.50;99.90;;;;;;5091419;28;19926;-69
2022/06/17 01:51:33;;;;;;;;;;;17.50;99.90;;;;;;5091637;28;19916;-69
2022/06/17 01:54:02;;;;;;;;;;;17.50;99.90;;;;;;5091337;28;20015;-68
2022/06/17 01:56:30;;;;;;;;;;;17.50;99.90;;;;;;5091318;28;20008;-69
2022/06/17 01:59:08;;;;;;;;;;;17.50;99.90;;;;;;5091539;28;19969;-69
2022/06/17 02:01:35;;;;;;;;;;;17.60;99.90;;;;;;5091270;28;19912;-69
2022/06/17 02:04:09;;;;;;;;;;;17.60;99.90;;;;;;5091770;28;19919;-69
2022/06/17 02:06:49;;;;;;;;;;;17.60;99.90;;;;;;5091279;28;19919;-70
2022/06/17 02:09:15;;;;;;;;;;;17.60;99.90;;;;;;5091552;28;20241;-69
2022/06/17 02:11:41;;;;;;;;;;;17.60;99.90;;;;;;5091467;28;19919;-69
2022/06/17 02:14:08;;;;;;;;;;;17.70;99.90;;;;;;5091365;28;19965;-69
2022/06/17 02:16:36;;;;;;;;;;;17.60;99.90;;;;;;5091483;28;20272;-69
2022/06/17 02:19:02;;;;;;;;;;;17.70;99.90;;;;;;5072859;28;19912;-69
2022/06/17 02:21:35;;;;;;;;;;;17.90;98.70;;;;;;5091002;28;20018;-69
2022/06/17 02:24:03;;;;;;;;;;;18.10;97.90;;;;;;5091143;28;20300;-70
2022/06/17 02:26:29;;;;;;;;;;;18.30;98.00;;;;;;5091192;28;19924;-69
2022/06/17 02:28:55;;;;;;;;;;;18.30;98.70;;;;;;5092598;28;20137;-69
2022/06/17 02:31:21;;;;;;;;;;;18.30;98.80;;;;;;5098881;28;20045;-69
2022/06/17 02:33:49;;;;;;;;;;;18.20;98.70;;;;;;5111430;28;19912;-69
2022/06/17 02:36:20;;;;;;;;;;;18.20;98.40;;;;;;5110832;28;20586;-68
2022/06/17 02:38:45;;;;;;;;;;;18.10;99.90;;;;;;5111305;28;19908;-69
2022/06/17 02:41:13;;;;;;;;;;;18.20;99.90;;;;;;5111360;28;19927;-69
2022/06/17 02:43:41;;;;;;;;;;;18.20;99.90;;;;;;5111694;28;19908;-69
2022/06/17 02:46:19;;;;;;;;;;;18.10;99.90;;;;;;5111303;28;20361;-69
2022/06/17 02:48:51;;;;;;;;;;;18.10;99.70;;;;;;5114945;28;20383;-69
2022/06/17 02:51:16;;;;;;;;;;;18.10;99.90;;;;;;5115275;28;20355;-69
2022/06/17 02:53:42;;;;;;;;;;;18.10;99.90;;;;;;5114829;28;19908;-68
2022/06/17 02:56:13;;;;;;;;;;;18.10;99.90;;;;;;5114865;28;19916;-69
2022/06/17 02:58:57;;;;;;;;;;;18.10;99.90;;;;;;5115077;28;19911;-69
2022/06/17 03:01:24;;;;;;;;;;;18.20;99.90;;;;;;5114779;28;19916;-69
2022/06/17 03:03:50;;;;;;;;;;;18.20;99.90;;;;;;5114734;28;19968;-69
2022/06/17 03:06:20;;;;;;;;;;;18.20;99.90;;;;;;5114668;28;19912;-69
2022/06/17 03:08:50;;;;;;;;;;;18.20;99.90;;;;;;5114688;28;20279;-69
2022/06/17 03:11:16;;;;;;;;;;;18.20;99.90;;;;;;5114739;28;19919;-69
2022/06/17 03:13:47;;;;;;;;;;;18.10;99.90;;;;;;5114629;28;19907;-69
2022/06/17 03:16:13;;;;;;;;;;;18.20;99.90;;;;;;5114537;28;19912;-68
2022/06/17 03:18:39;;;;;;;;;;;18.30;99.90;;;;;;5114476;28;19972;-69
2022/06/17 03:21:06;;;;;;;;;;;18.30;99.90;;;;;;5114577;28;20426;-69
2022/06/17 03:23:42;;;;;;;;;;;18.30;99.90;;;;;;5114200;28;19988;-69
2022/06/17 03:26:12;;;;;;;;;;;18.40;99.90;;;;;;5096099;28;19980;-69
2022/06/17 03:28:45;;;;;;;;;;;18.40;99.90;;;;;;5114306;28;19908;-69
2022/06/17 03:31:16;;;;;;;;;;;18.40;99.90;;;;;;5114204;28;19934;-69
2022/06/17 03:33:47;;;;;;;;;;;18.40;99.90;;;;;;5114074;28;19934;-69
2022/06/17 03:36:21;;;;;;;;;;;18.50;99.90;;;;;;5114234;28;19923;-69
2022/06/17 03:38:49;;;;;;;;;;;18.60;99.90;;;;;;5114050;28;19954;-69
2022/06/17 03:41:18;;;;;;;;;;;18.60;99.90;;;;;;5114309;28;19916;-69
2022/06/17 03:44:04;;;;;;;;;;;18.60;99.90;;;;;;5114081;28;20374;-69
2022/06/17 03:46:32;;;;;;;;;;;18.60;99.90;;;;;;5113891;28;20028;-69
2022/06/17 03:49:00;;;;;;;;;;;18.80;99.90;;;;;;5114015;28;20007;-68
2022/06/17 03:51:26;;;;;;;;;;;18.80;99.90;;;;;;5114147;28;19923;-67
2022/06/17 03:53:52;;;;;;;;;;;18.90;99.90;;;;;;5113925;28;19960;-67
2022/06/17 03:56:20;;;;;;;;;;;18.90;99.90;;;;;;5113730;28;19920;-68
2022/06/17 03:58:46;;;;;;;;;;;18.90;99.90;;;;;;5112706;28;19908;-68
2022/06/17 04:01:14;;;;;;;;;;;18.90;99.90;;;;;;5113639;28;19920;-69
2022/06/17 04:03:42;;;;;;;;;;;19.00;99.90;;;;;;5113390;28;19973;-69
2022/06/17 04:06:12;;;;;;;;;;;19.00;99.90;;;;;;5113465;28;19916;-67
2022/06/17 04:08:57;;;;;;;;;;;19.10;99.90;;;;;;5113233;28;19912;-68
2022/06/17 04:11:34;;;;;;;;;;;19.10;99.90;;;;;;5113230;28;20006;-68
2022/06/17 04:14:02;;;;;;;;;;;19.20;99.90;;;;;;5113509;28;19908;-68
2022/06/17 04:16:33;;;;;;;;;;;19.30;99.90;;;;;;5113554;28;19998;-68
2022/06/17 04:19:03;;;;;;;;;;;19.40;99.80;;;;;;5113502;28;20393;-68
2022/06/17 04:21:28;;;;;;;;;;;19.40;99.50;;;;;;5113186;28;19923;-68
2022/06/17 04:23:54;;;;;;;;;;;19.50;99.10;;;;;;5113010;28;19912;-68
2022/06/17 04:26:28;;;;;;;;;;;19.50;99.00;;;;;;5113012;28;20356;-69
2022/06/17 04:28:59;;;;;;;;;;;19.50;99.30;;;;;;5112521;28;19964;-69
2022/06/17 04:31:26;;;;;;;;;;;19.60;99.80;;;;;;5112910;28;19978;-70
2022/06/17 04:33:53;;;;;;;;;;;19.60;99.80;;;;;;5113046;28;20268;-68
2022/06/17 04:36:28;;;;;;;;;;;19.70;98.50;;;;;;5112886;28;19916;-69
2022/06/17 04:38:56;;;;;;;;;;;19.70;98.30;;;;;;5113112;28;19938;-69
2022/06/17 04:41:24;;;;;;;;;;;19.70;98.50;;;;;;5112926;28;19960;-69
2022/06/17 04:43:52;;;;;;;;;;;19.70;98.10;;;;;;5113076;28;20368;-69
2022/06/17 04:46:20;;;;;;;;;;;19.70;98.10;;;;;;5112674;28;19930;-69
2022/06/17 04:48:47;;;;;;;;;;;19.70;98.00;;;;;;5112604;28;19955;-70
2022/06/17 04:51:12;;;;;;;;;;;19.80;98.40;;;;;;5112813;28;19915;-69
2022/06/17 04:53:42;;;;;;;;;;;19.90;98.10;;;;;;5112547;28;19915;-69
2022/06/17 04:56:12;;;;;;;;;;;20.00;98.00;;;;;;5112688;28;20007;-69
2022/06/17 04:58:38;;;;;;;;;;;20.10;98.00;;;;;;5112620;28;20106;-69
2022/06/17 05:01:03;;;;;;;;;;;20.30;97.70;;;;;;5112517;28;20497;-69
2022/06/17 05:03:29;;;;;;;;;;;20.40;97.50;;;;;;5112370;28;20672;-69
2022/06/17 05:05:55;;;;;;;;;;;20.50;96.80;;;;;;5112471;28;20086;-69
2022/06/17 05:08:28;;;;;;;;;;;20.50;95.70;;;;;;5112352;28;19951;-69
2022/06/17 05:11:07;;;;;;;;;;;20.60;95.80;;;;;;5112792;27;20259;-69
2022/06/17 05:13:37;;;;;;;;;;;20.60;94.90;;;;;;5112215;28;19977;-69
2022/06/17 05:16:02;;;;;;;;;;;20.60;94.20;;;;;;5112168;28;19930;-69
2022/06/17 05:18:28;;;;;;;;;;;20.60;94.20;;;;;;5112089;28;19912;-69
2022/06/17 05:20:53;;;;;;;;;;;20.60;94.60;;;;;;5112444;28;19915;-69
2022/06/17 05:23:19;;;;;;;;;;;20.70;94.30;;;;;;5112057;28;20448;-69
2022/06/17 05:25:46;;;;;;;;;;;20.70;94.40;;;;;;5112543;28;19908;-69
2022/06/17 05:28:16;;;;;;;;;;;20.80;94.60;;;;;;5112159;28;19919;-68
2022/06/17 05:30:44;;;;;;;;;;;20.90;94.20;;;;;;5111627;28;19984;-69
2022/06/17 05:33:12;;;;;;;;;;;20.90;93.90;;;;;;5112209;28;19964;-69
2022/06/17 05:35:37;;;;;;;;;;;21.00;93.50;;;;;;5112313;28;19911;-69
2022/06/17 05:38:03;;;;;;;;;;;21.10;93.10;;;;;;5112068;28;19912;-69
2022/06/17 05:40:28;;;;;;;;;;;21.10;92.90;;;;;;5094134;28;20251;-69
2022/06/17 05:42:54;;;;;;;;;;;21.20;93.20;;;;;;5093367;28;19912;-69
2022/06/17 05:45:21;;;;;;;;;;;21.30;93.00;;;;;;5093382;28;19919;-69
2022/06/17 05:47:47;;;;;;;;;;;21.40;92.50;;;;;;5111939;28;19912;-69
2022/06/17 05:50:13;;;;;;;;;;;21.50;92.30;;;;;;5111831;28;20359;-69
2022/06/17 05:52:49;;;;;;;;;;;21.60;92.40;;;;;;5111700;28;19912;-69
2022/06/17 05:55:14;;;;;;;;;;;21.70;92.20;;;;;;5112095;28;20057;-69
2022/06/17 05:57:40;;;;;;;;;;;21.80;92.10;;;;;;5111564;28;19956;-69
2022/06/17 06:00:06;;;;;;;;;;;21.90;91.40;;;;;;5111878;28;19912;-69
2022/06/17 06:02:31;;;;;;;;;;;21.90;91.50;;;;;;5111868;28;19939;-69
2022/06/17 06:04:57;;;;;;;;;;;21.90;90.50;;;;;;5111626;28;20367;-69
2022/06/17 06:07:22;;;;;;;;;;;22.00;91.10;;;;;;5111814;28;20006;-69
2022/06/17 06:09:48;;;;;;;;;;;22.20;90.60;;;;;;5111970;28;19923;-69
2022/06/17 06:12:13;;;;;;;;;;;22.10;90.90;;;;;;5111641;28;20438;-70
2022/06/17 06:14:39;;;;;;;;;;;22.10;90.50;;;;;;5111770;28;19916;-69
2022/06/17 06:17:04;;;;;;;;;;;22.00;90.90;;;;;;5111680;28;19941;-69
2022/06/17 06:19:31;;;;;;;;;;;22.00;91.40;;;;;;5111715;28;19933;-69
2022/06/17 06:21:57;;;;;;;;;;;22.20;90.40;;;;;;5112475;28;20416;-69
2022/06/17 06:24:22;;;;;;;;;;;22.20;90.20;;;;;;5115615;28;20003;-68
2022/06/17 06:26:48;;;;;;;;;;;22.40;89.60;;;;;;5115381;28;19955;-68
2022/06/17 06:29:13;;;;;;;;;;;22.50;88.90;;;;;;5114930;28;19974;-68
2022/06/17 06:31:39;;;;;;;;;;;22.60;88.40;;;;;;5115702;28;19966;-69
2022/06/17 06:34:05;;;;;;;;;;;22.70;88.30;;;;;;5096917;28;20311;-69
2022/06/17 06:36:30;;;;;;;;;;;22.70;88.20;;;;;;5115254;28;20279;-69
2022/06/17 06:38:56;;;;;;;;;;;22.70;87.20;;;;;;5115262;28;20386;-70
2022/06/17 06:41:22;;;;;;;;;;;22.80;86.90;;;;;;5115205;28;19987;-68
2022/06/17 06:43:48;;;;;;;;;;;22.90;86.00;;;;;;5115240;28;19950;-68
2022/06/17 06:46:15;;;;;;;;;;;22.90;85.80;;;;;;5114908;28;20004;-68
2022/06/17 06:48:41;;;;;;;;;;;22.90;84.20;;;;;;5114845;28;19908;-69
2022/06/17 06:51:06;;;;;;;;;;;22.90;85.50;;;;;;5115033;28;20135;-69
2022/06/17 06:53:32;;;;;;;;;;;23.00;86.30;;;;;;5114927;28;19907;-69
2022/06/17 06:55:57;;;;;;;;;;;23.20;86.30;;;;;;5114898;28;20391;-70
2022/06/17 06:58:24;;;;;;;;;;;23.30;86.10;;;;;;5115168;28;19911;-69
2022/06/17 07:00:54;;;;;;;;;;;23.40;85.30;;;;;;5115214;28;19919;-70
2022/06/17 07:03:20;;;;;;;;;;;23.40;83.30;;;;;;5114876;28;19916;-69
2022/06/17 07:05:48;;;;;;;;;;;23.40;80.80;;;;;;5115093;28;20278;-70
2022/06/17 07:08:14;;;;;;;;;;;23.50;80.60;;;;;;5115001;28;19916;-69
2022/06/17 07:10:40;;;;;;;;;;;23.40;81.10;;;;;;5115021;28;19920;-68
2022/06/17 07:13:08;;;;;;;;;;;23.50;83.40;;;;;;5114685;28;20006;-68
2022/06/17 07:15:34;;;;;;;;;;;23.40;79.00;;;;;;5114904;28;20002;-68
2022/06/17 07:18:01;;;;;;;;;;;23.40;77.70;;;;;;5114544;28;19915;-68
2022/06/17 07:20:28;;;;;;;;;;;23.40;80.00;;;;;;5096350;28;19912;-69
2022/06/17 07:22:54;;;;;;;;;;;23.50;81.50;;;;;;5114473;28;20387;-69
2022/06/17 07:25:20;;;;;;;;;;;23.50;81.30;;;;;;5114729;28;19919;-70
2022/06/17 07:27:46;;;;;;;;;;;23.50;82.40;;;;;;5114393;28;20380;-68
2022/06/17 07:30:15;;;;;;;;;;;23.60;81.60;;;;;;5113720;28;20015;-69
2022/06/17 07:32:41;;;;;;;;;;;23.70;81.50;;;;;;5114513;28;19935;-69
2022/06/17 07:35:06;;;;;;;;;;;23.80;79.60;;;;;;5113235;28;20267;-69
2022/06/17 07:40:16;;;;;;;;;;;23.90;79.70;;;;;;5114474;28;20430;-69
2022/06/17 07:42:43;;;;;;;;;;;23.90;81.20;;;;;;5114084;28;19912;-69
2022/06/17 07:45:11;;;;;;;;;;;23.20;79.00;;;;;;5095525;28;19918;-69
2022/06/17 07:47:37;;;;;;;;;;;24.00;78.10;;;;;;5113485;28;20020;-69
2022/06/17 07:50:05;;;;;;;;;;;24.30;79.00;;;;;;5114060;28;20018;-70
2022/06/17 07:52:30;;;;;;;;;;;24.60;80.20;;;;;;5113639;28;19915;-70
2022/06/17 07:54:56;;;;;;;;;;;25.00;78.10;;;;;;5114151;28;19915;-70
2022/06/17 07:57:21;;;;;;;;;;;25.40;75.60;;;;;;5113664;28;19912;-69
2022/06/17 07:59:47;;;;;;;;;;;25.40;74.10;;;;;;5095504;28;19912;-69
2022/06/17 08:02:12;;;;;;;;;;;25.30;74.10;;;;;;5113520;28;20006;-69
2022/06/17 08:04:38;;;;;;;;;;;25.20;73.70;;;;;;5113831;28;20400;-69
2022/06/17 08:07:04;;;;;;;;;;;25.20;73.30;;;;;;5113774;28;19958;-70
2022/06/17 08:09:30;;;;;;;;;;;25.30;73.00;;;;;;5113752;28;19923;-68
2022/06/17 08:11:55;;;;;;;;;;;25.20;72.30;;;;;;5113413;28;19961;-68
2022/06/17 08:14:21;;;;;;;;;;;25.20;73.20;;;;;;5113492;28;20010;-68
2022/06/17 08:16:46;;;;;;;;;;;25.00;73.20;;;;;;5113305;28;20422;-68
2022/06/17 08:19:12;;;;;;;;;;;24.90;74.40;;;;;;5113635;28;20011;-69
2022/06/17 08:21:38;;;;;;;;;;;24.90;74.20;;;;;;5113281;28;19923;-69
2022/06/17 08:24:04;;;;;;;;;;;25.10;72.50;;;;;;5113358;28;19916;-69
2022/06/17 08:26:29;;;;;;;;;;;24.90;72.50;;;;;;5112963;28;20328;-69
2022/06/17 08:28:55;;;;;;;;;;;24.70;72.10;;;;;;5112823;28;20015;-68
2022/06/17 08:31:20;;;;;;;;;;;24.60;73.00;;;;;;5113402;28;19916;-68
2022/06/17 08:33:46;;;;;;;;;;;24.70;73.00;;;;;;5112948;28;19912;-69
2022/06/17 08:36:16;;;;;;;;;;;24.80;72.20;;;;;;5112641;28;20336;-68
2022/06/17 08:38:45;;;;;;;;;;;24.60;72.70;;;;;;5112969;28;20374;-68
2022/06/17 08:41:18;;;;;;;;;;;24.70;72.40;;;;;;5113097;28;19930;-69
2022/06/17 08:44:02;;;;;;;;;;;24.80;72.50;;;;;;5112686;28;19961;-70
2022/06/17 08:46:56;;;;;;;;;;;24.60;72.00;;;;;;5112828;28;20295;-70
2022/06/17 08:49:40;;;;;;;;;;;24.40;73.00;;;;;;5095032;28;19920;-70
2022/06/17 08:52:12;;;;;;;;;;;24.40;73.00;;;;;;5112606;28;19922;-70
2022/06/17 08:55:01;;;;;;;;;;;24.30;73.00;;;;;;5112870;28;19919;-68
2022/06/17 08:57:56;;;;;;;;;;;24.20;73.30;;;;;;5101928;28;19947;-68
2022/06/17 09:00:33;;;;;;;;;;;24.20;74.10;;;;;;5094486;28;19919;-68
2022/06/17 09:03:05;;;;;;;;;;;24.70;72.70;;;;;;5112771;28;19912;-68
2022/06/17 09:05:48;;;;;;;;;;;24.70;72.90;;;;;;5094279;28;20299;-68
2022/06/17 09:08:16;;;;;;;;;;;25.00;71.60;;;;;;5112093;28;19924;-69
2022/06/17 09:11:00;;;;;;;;;;;25.20;71.60;;;;;;5112780;28;20428;-70
2022/06/17 09:13:43;;;;;;;;;;;24.90;70.50;;;;;;5112834;28;20281;-68
2022/06/17 09:16:14;;;;;;;;;;;24.60;71.30;;;;;;5112370;28;20014;-68
2022/06/17 09:18:45;;;;;;;;;;;24.40;71.10;;;;;;5112311;28;19963;-69
2022/06/17 09:21:16;;;;;;;;;;;24.80;71.30;;;;;;5112419;28;19920;-68
2022/06/17 09:23:42;;;;;;;;;;;25.30;70.20;;;;;;5112042;28;19916;-68
2022/06/17 09:26:11;;;;;;;;;;;25.70;70.60;;;;;;5112108;28;19999;-68
2022/06/17 09:28:38;;;;;;;;;;;26.20;69.70;;;;;;5111988;28;20399;-67
2022/06/17 09:31:10;;;;;;;;;;;26.40;69.60;;;;;;5111832;28;19974;-67
2022/06/17 09:33:40;;;;;;;;;;;26.60;69.60;;;;;;5093270;28;19908;-68
2022/06/17 09:36:09;;;;;;;;;;;26.90;67.30;;;;;;5111745;28;20014;-68
2022/06/17 09:38:59;;;;;;;;;;;27.30;66.70;;;;;;5111846;28;19908;-68
2022/06/17 09:41:35;;;;;;;;;;;27.60;66.90;;;;;;5111938;28;19912;-68
2022/06/17 09:44:06;;;;;;;;;;;27.70;66.50;;;;;;5111710;28;19919;-69
2022/06/17 09:46:47;;;;;;;;;;;27.60;67.40;;;;;;5111984;28;19912;-69
2022/06/17 09:49:27;;;;;;;;;;;27.80;66.00;;;;;;5111680;28;20228;-69
2022/06/17 09:52:02;;;;;;;;;;;27.70;65.10;;;;;;5112115;28;20341;-69
2022/06/17 09:54:46;;;;;;;;;;;27.90;65.70;;;;;;5111961;28;20028;-69
2022/06/17 09:57:14;;;;;;;;;;;27.80;65.60;;;;;;5111085;28;19976;-68
2022/06/17 09:59:41;;;;;;;;;;;27.70;65.30;;;;;;5111840;28;19912;-67
2022/06/17 10:02:16;;;;;;;;;;;28.00;65.10;;;;;;5111604;28;19919;-67
2022/06/17 10:04:41;;;;;;;;;;;28.30;64.30;;;;;;5111825;28;19949;-68
2022/06/17 10:07:25;;;;;;;;;;;28.60;64.40;;;;;;5111486;28;19916;-68
2022/06/17 10:10:09;;;;;;;;;;;28.50;63.90;;;;;;5111839;28;20389;-70
2022/06/17 10:12:41;;;;;;;;;;;28.00;64.10;;;;;;5111559;28;19916;-68
2022/06/17 10:15:16;;;;;;;;;;;27.70;65.10;;;;;;5111711;28;20006;-69
2022/06/17 10:20:48;;;;;;;;;;;27.10;65.40;;;;;;5111922;28;19965;-69
2022/06/17 10:23:22;;;;;;;;;;;27.00;64.60;;;;;;5111745;28;19911;-69
2022/06/17 10:26:06;;;;;;;;;;;27.00;66.20;;;;;;5111286;28;19965;-69
2022/06/17 10:29:01;;;;;;;;;;;27.00;66.60;;;;;;5110510;28;19912;-69
2022/06/17 10:31:26;;;;;;;;;;;26.70;67.40;;;;;;5093484;28;20302;-69
2022/06/17 10:33:54;;;;;;;;;;;26.40;67.90;;;;;;5111106;28;19998;-69
2022/06/17 10:36:19;;;;;;;;;;;26.20;67.70;;;;;;5111040;28;20402;-68
2022/06/17 10:38:46;;;;;;;;;;;26.10;67.40;;;;;;5111153;28;19908;-69
2022/06/17 10:41:12;;;;;;;;;;;26.50;66.90;;;;;;5111559;28;19920;-69
2022/06/17 10:43:39;;;;;;;;;;;26.90;66.30;;;;;;5110894;28;20247;-69
2022/06/17 10:46:05;;;;;;;;;;;27.30;66.10;;;;;;5111252;28;20006;-69
2022/06/17 10:48:40;;;;;;;;;;;27.60;65.80;;;;;;5111262;28;19954;-69
2022/06/17 10:51:06;;;;;;;;;;;27.40;65.60;;;;;;5111375;28;19923;-69
2022/06/17 10:53:55;;;;;;;;;;;27.30;66.60;;;;;;5111182;28;20317;-69
2022/06/17 10:56:26;;;;;;;;;;;27.60;66.40;;;;;;5100338;28;20287;-67
2022/06/17 10:58:56;;;;;;;;;;;28.00;66.00;;;;;;5111135;28;19991;-67
2022/06/17 11:01:22;;;;;;;;;;;27.70;65.70;;;;;;5111534;28;19920;-69
2022/06/17 11:03:48;;;;;;;;;;;27.20;66.20;;;;;;5111210;28;20335;-69
2022/06/17 11:06:18;;;;;;;;;;;26.80;66.90;;;;;;5111207;28;20443;-68
2022/06/17 11:08:54;;;;;;;;;;;26.50;68.00;;;;;;5112149;28;19911;-69
2022/06/17 11:14:20;;;;;;;;;;;25.80;67.80;;;;;;5114611;28;19915;-69
2022/06/17 11:16:45;;;;;;;;;;;25.40;69.00;;;;;;5114964;28;20008;-68
2022/06/17 11:19:13;;;;;;;;;;;25.20;70.10;;;;;;5114249;28;19954;-70
2022/06/17 11:21:42;;;;;;;;;;;25.20;70.40;;;;;;5114385;28;20022;-68
2022/06/17 11:24:18;;;;;;;;;;;25.10;70.90;;;;;;5113799;28;19931;-68
2022/06/17 11:26:57;;;;;;;;;;;25.10;70.30;;;;;;5114731;28;20300;-68
2022/06/17 11:29:33;;;;;;;;;;;25.00;70.70;;;;;;5113335;28;19920;-68
2022/06/17 11:32:11;;;;;;;;;;;25.00;71.30;;;;;;5114023;28;19919;-68
2022/06/17 11:34:45;;;;;;;;;;;25.00;71.40;;;;;;5114488;28;19912;-67
2022/06/17 11:37:34;;;;;;;;;;;25.10;71.80;;;;;;5114215;28;20012;-68
2022/06/17 11:40:07;;;;;;;;;;;25.10;72.30;;;;;;5102601;28;19927;-68
2022/06/17 11:42:33;;;;;;;;;;;25.10;72.10;;;;;;5095712;28;20284;-67
2022/06/17 11:45:04;;;;;;;;;;;25.00;72.70;;;;;;5113342;28;19912;-68
2022/06/17 11:47:31;;;;;;;;;;;25.00;72.70;;;;;;5113965;28;19943;-68
2022/06/17 11:50:10;;;;;;;;;;;25.00;73.70;;;;;;5113643;28;19915;-68
2022/06/17 11:52:36;;;;;;;;;;;25.00;73.80;;;;;;5113951;28;19919;-68
2022/06/17 11:55:03;;;;;;;;;;;25.20;73.60;;;;;;5113557;28;19919;-69
2022/06/17 11:57:30;;;;;;;;;;;25.40;73.70;;;;;;5114274;28;19912;-67
2022/06/17 11:59:57;;;;;;;;;;;25.60;72.80;;;;;;5113428;28;19994;-68
2022/06/17 12:02:23;;;;;;;;;;;25.90;72.60;;;;;;5113725;28;19912;-67
2022/06/17 12:04:48;;;;;;;;;;;26.20;73.50;;;;;;5114003;28;19946;-68
2022/06/17 12:07:25;;;;;;;;;;;26.30;74.00;;;;;;5114386;28;19955;-68
2022/06/17 12:09:53;;;;;;;;;;;26.50;72.80;;;;;;5113721;28;20380;-67
2022/06/17 12:12:21;;;;;;;;;;;26.80;72.70;;;;;;5113754;28;19934;-68
2022/06/17 12:14:46;;;;;;;;;;;27.00;72.50;;;;;;5113680;28;19912;-68
2022/06/17 12:17:13;;;;;;;;;;;27.00;71.70;;;;;;5113678;28;19922;-68
2022/06/17 12:19:39;;;;;;;;;;;27.00;71.40;;;;;;5112600;28;19966;-69
2022/06/17 12:22:13;;;;;;;;;;;27.00;71.50;;;;;;5113243;28;20479;-69
2022/06/17 12:24:48;;;;;;;;;;;26.80;71.60;;;;;;5113598;28;19912;-69
2022/06/17 12:27:16;;;;;;;;;;;26.60;70.60;;;;;;5113041;28;19955;-68
2022/06/17 12:30:02;;;;;;;;;;;26.50;70.30;;;;;;5113167;28;20437;-67
2022/06/17 12:32:36;;;;;;;;;;;26.40;71.30;;;;;;5113595;28;19915;-69
2022/06/17 12:35:21;;;;;;;;;;;26.20;71.30;;;;;;5113678;28;19916;-68
2022/06/17 12:38:13;;;;;;;;;;;26.10;71.60;;;;;;5113341;28;19935;-68
2022/06/17 12:40:45;;;;;;;;;;;26.00;71.80;;;;;;5108458;28;19987;-66
2022/06/17 12:43:14;;;;;;;;;;;25.80;71.90;;;;;;5112783;28;19915;-66
2022/06/17 12:45:42;;;;;;;;;;;25.70;71.60;;;;;;5112888;28;19943;-68
2022/06/17 12:48:22;;;;;;;;;;;25.70;71.40;;;;;;5112180;28;19915;-67
2022/06/17 12:53:53;;;;;;;;;;;25.40;78.30;;;;;;5112776;28;19933;-67
2022/06/17 12:56:37;;;;;;;;;;;25.20;80.70;;;;;;5112633;28;19918;-68
2022/06/17 12:59:14;;;;;;;;;;;24.90;82.10;;;;;;5113218;28;20006;-67
2022/06/17 13:01:42;;;;;;;;;;;24.60;83.00;;;;;;5113198;28;19912;-68
2022/06/17 13:04:27;;;;;;;;;;;24.30;82.10;;;;;;5112809;28;19918;-68
2022/06/17 13:06:58;;;;;;;;;;;24.20;82.90;;;;;;5113089;28;19912;-68
2022/06/17 13:09:42;;;;;;;;;;;24.00;82.50;;;;;;5113020;28;19919;-70
2022/06/17 13:12:26;;;;;;;;;;;23.80;83.20;;;;;;5112490;28;19912;-69
2022/06/17 13:15:01;;;;;;;;;;;23.80;84.20;;;;;;5112502;28;19965;-68
2022/06/17 13:17:42;;;;;;;;;;;23.70;84.70;;;;;;5112210;28;19912;-69
2022/06/17 13:20:11;;;;;;;;;;;23.70;85.10;;;;;;5112512;28;19911;-69
2022/06/17 13:22:42;;;;;;;;;;;23.70;84.90;;;;;;5111897;28;19918;-70
2022/06/17 13:25:17;;;;;;;;;;;23.70;85.30;;;;;;5111804;28;19912;-70
2022/06/17 13:27:50;;;;;;;;;;;23.70;85.80;;;;;;5112402;28;20275;-70
2022/06/17 13:30:34;;;;;;;;;;;23.70;86.50;;;;;;5093370;28;19923;-69
2022/06/17 13:33:03;;;;;;;;;;;23.60;86.70;;;;;;5111353;28;19938;-69
2022/06/17 13:35:44;;;;;;;;;;;23.60;86.90;;;;;;5093748;28;19953;-70
2022/06/17 13:38:12;;;;;;;;;;;23.70;86.80;;;;;;5111904;28;19942;-70
2022/06/17 13:40:42;;;;;;;;;;;23.70;86.70;;;;;;5112167;28;19958;-69
2022/06/17 13:43:17;;;;;;;;;;;23.70;85.60;;;;;;5111891;28;19982;-70
2022/06/17 13:46:01;;;;;;;;;;;23.60;85.30;;;;;;5112150;28;20348;-70
2022/06/17 13:48:35;;;;;;;;;;;23.40;84.90;;;;;;5111639;28;19919;-70
2022/06/17 13:51:01;;;;;;;;;;;23.40;85.30;;;;;;5111854;28;19923;-70
2022/06/17 13:53:26;;;;;;;;;;;23.40;85.80;;;;;;5111696;28;19908;-71
2022/06/17 13:55:58;;;;;;;;;;;23.40;86.30;;;;;;5112133;28;19915;-70
2022/06/17 13:58:27;;;;;;;;;;;23.30;86.30;;;;;;5111781;28;20330;-70
2022/06/17 14:00:55;;;;;;;;;;;23.40;86.50;;;;;;5112142;28;19914;-69
2022/06/17 14:03:22;;;;;;;;;;;23.20;86.60;;;;;;5111682;28;19959;-69
2022/06/17 14:06:01;;;;;;;;;;;23.20;86.60;;;;;;5112065;28;19931;-69
2022/06/17 14:08:44;;;;;;;;;;;23.10;86.90;;;;;;5112004;28;20026;-70
2022/06/17 14:14:13;;;;;;;;;;;22.90;86.50;;;;;;5111619;28;19915;-70
2022/06/17 14:16:40;;;;;;;;;;;22.90;86.70;;;;;;5111631;28;20014;-70
2022/06/17 14:19:07;;;;;;;;;;;22.90;87.00;;;;;;5111642;28;20355;-70
2022/06/17 14:21:34;;;;;;;;;;;22.80;87.70;;;;;;5111373;28;19915;-70
2022/06/17 14:24:01;;;;;;;;;;;22.80;87.40;;;;;;5111693;28;19949;-69
2022/06/17 14:26:39;;;;;;;;;;;22.80;87.40;;;;;;5111631;28;20376;-70
2022/06/17 14:29:10;;;;;;;;;;;22.80;87.40;;;;;;5111102;28;20355;-69
2022/06/17 14:31:36;;;;;;;;;;;22.70;87.50;;;;;;5111530;28;20022;-70
2022/06/17 14:34:07;;;;;;;;;;;22.60;87.00;;;;;;5111391;28;19960;-70
2022/06/17 14:36:44;;;;;;;;;;;22.70;87.40;;;;;;5111498;28;19961;-70
2022/06/17 14:39:19;;;;;;;;;;;22.70;88.10;;;;;;5111604;28;20252;-70
2022/06/17 14:42:05;;;;;;;;;;;22.60;88.90;;;;;;5111650;28;19912;-70
2022/06/17 14:44:37;;;;;;;;;;;22.50;88.80;;;;;;5114977;28;19958;-70
2022/06/17 14:47:17;;;;;;;;;;;22.50;88.20;;;;;;5115315;28;19918;-70
2022/06/17 14:49:55;;;;;;;;;;;22.50;88.20;;;;;;5115211;28;20268;-68
2022/06/17 14:52:26;;;;;;;;;;;22.40;88.50;;;;;;5115103;28;19916;-69